Time;durP1;ratioP1;P1;durP2;ratioP2;P2;SDS_P1;SDS_P2;PMS_P1;PMS_P2;Temp;Humidity;BMP_temperature;BMP_pressure;BME280_temperature;BME280_humidity;BME280_pressure;Samples;Min_cycle;Max_cycle;Signal;HPM_P1;HPM_P2
2021/12/05 00:16:48;;;;;;;13.60;6.38;;;4.40;99.90;;;;;;5064124;28;20541;-65
2021/12/05 00:22:50;;;;;;;14.73;6.22;;;4.10;99.90;;;;;;5042855;28;20048;-64
2021/12/05 00:25:26;;;;;;;11.07;5.05;;;4.10;99.90;;;;;;5060822;28;20447;-64
2021/12/05 00:28:10;;;;;;;13.10;5.18;;;4.10;99.90;;;;;;5062228;28;20078;-64
2021/12/05 00:33:17;;;;;;;9.90;4.90;;;4.10;99.90;;;;;;5060867;28;20041;-64
2021/12/05 00:44:30;;;;;;;12.57;5.50;;;4.10;99.90;;;;;;5058482;28;20048;-64
2021/12/05 00:49:34;;;;;;;14.38;5.15;;;4.20;99.90;;;;;;5062142;28;20131;-64
2021/12/05 00:55:08;;;;;;;12.25;4.85;;;4.20;99.90;;;;;;5061052;28;20052;-64
2021/12/05 01:02:37;;;;;;;13.32;5.53;;;4.20;99.90;;;;;;5061287;28;20048;-64
2021/12/05 01:05:50;;;;;;;13.52;5.85;;;4.20;99.90;;;;;;5058567;28;20097;-64
2021/12/05 01:13:33;;;;;;;10.00;5.22;;;4.20;99.90;;;;;;5062274;28;20040;-64
2021/12/05 01:16:04;;;;;;;12.32;5.35;;;4.20;99.90;;;;;;5056627;28;20662;-64
2021/12/05 01:18:30;;;;;;;13.88;5.63;;;4.10;99.90;;;;;;5062865;28;20033;-64
2021/12/05 01:21:00;;;;;;;18.33;6.10;;;4.10;99.90;;;;;;5058399;28;20044;-64
2021/12/05 01:26:21;;;;;;;11.48;5.22;;;4.10;99.90;;;;;;5059223;28;20502;-64
2021/12/05 01:29:12;;;;;;;9.35;4.93;;;4.10;99.90;;;;;;5060929;28;20045;-64
2021/12/05 01:34:30;;;;;;;13.48;5.38;;;4.10;99.90;;;;;;5059966;28;20159;-64
2021/12/05 01:45:26;;;;;;;14.57;5.33;;;4.20;99.90;;;;;;5058515;28;20048;-64
2021/12/05 01:51:04;;;;;;;11.85;5.40;;;4.20;99.90;;;;;;5058765;28;20482;-64
2021/12/05 01:58:56;;;;;;;14.40;5.68;;;4.30;99.90;;;;;;5058175;28;20086;-65
2021/12/05 02:36:54;;;;;;;22.70;9.00;;;4.20;99.90;;;;;;5032348;28;20056;-64
2021/12/05 02:42:06;;;;;;;23.02;10.27;;;4.20;99.90;;;;;;5069884;28;20056;-64
2021/12/05 02:44:32;;;;;;;15.88;9.93;;;4.20;99.90;;;;;;5066724;28;20040;-64
2021/12/05 02:47:06;;;;;;;21.50;11.20;;;4.30;99.90;;;;;;5067863;28;20040;-64
2021/12/05 02:49:34;;;;;;;21.15;11.60;;;4.30;99.90;;;;;;5066245;28;20501;-65
2021/12/05 02:52:06;;;;;;;24.60;12.30;;;4.30;99.90;;;;;;5099252;28;20055;-64
2021/12/05 02:54:38;;;;;;;24.17;12.07;;;4.30;99.90;;;;;;5100127;28;20384;-64
2021/12/05 02:57:07;;;;;;;25.50;13.02;;;4.30;99.90;;;;;;5098861;28;20033;-64
2021/12/05 03:02:07;;;;;;;29.80;12.85;;;4.30;99.90;;;;;;5070002;28;20044;-64
2021/12/05 03:04:36;;;;;;;29.58;13.85;;;4.40;99.90;;;;;;5065629;28;20125;-64
2021/12/05 03:07:07;;;;;;;32.95;14.25;;;4.40;99.90;;;;;;5067165;28;20116;-64
2021/12/05 03:09:34;;;;;;;25.67;14.02;;;4.40;99.90;;;;;;5067685;28;20052;-64
2021/12/05 03:12:00;;;;;;;28.40;13.73;;;4.30;99.90;;;;;;5068218;28;20123;-64
2021/12/05 03:14:26;;;;;;;27.02;13.02;;;4.40;99.90;;;;;;5068054;28;20037;-64
2021/12/05 03:16:52;;;;;;;26.33;13.40;;;4.40;99.90;;;;;;5067328;28;20044;-64
2021/12/05 03:19:18;;;;;;;27.27;14.05;;;4.40;99.90;;;;;;5071601;28;20048;-64
2021/12/05 03:21:46;;;;;;;30.25;13.70;;;4.30;99.90;;;;;;5066433;28;20178;-64
2021/12/05 03:24:14;;;;;;;28.15;13.85;;;4.40;99.90;;;;;;5069274;28;20607;-64
2021/12/05 03:26:43;;;;;;;26.50;13.63;;;4.30;99.90;;;;;;5098728;28;20044;-64
2021/12/05 03:29:12;;;;;;;29.92;14.65;;;4.30;99.90;;;;;;5096693;28;20056;-64
2021/12/05 03:31:39;;;;;;;33.40;15.25;;;4.30;99.90;;;;;;5065694;28;20075;-64
2021/12/05 03:34:08;;;;;;;28.33;13.70;;;4.40;99.90;;;;;;5065770;28;20052;-64
2021/12/05 03:36:35;;;;;;;25.92;14.23;;;4.40;99.90;;;;;;5065949;28;20040;-64
2021/12/05 03:39:03;;;;;;;30.90;13.75;;;4.30;99.90;;;;;;5096029;28;20049;-64
2021/12/05 03:41:29;;;;;;;21.80;12.50;;;4.30;99.90;;;;;;5065316;28;20033;-64
2021/12/05 03:43:56;;;;;;;22.05;12.30;;;4.30;99.90;;;;;;5064337;28;20033;-64
2021/12/05 03:46:23;;;;;;;24.63;12.43;;;4.30;99.90;;;;;;5065885;28;20061;-64
2021/12/05 03:48:56;;;;;;;25.90;12.32;;;4.30;99.90;;;;;;5066625;28;20044;-64
2021/12/05 03:51:23;;;;;;;26.95;11.57;;;4.20;99.90;;;;;;5064393;28;20078;-64
2021/12/05 03:53:51;;;;;;;29.33;11.73;;;4.30;99.90;;;;;;5095564;28;20036;-64
2021/12/05 03:56:17;;;;;;;23.83;11.20;;;4.30;99.90;;;;;;5096041;28;20471;-64
2021/12/05 03:58:44;;;;;;;34.17;12.07;;;4.30;99.90;;;;;;5094555;28;20044;-64
2021/12/05 04:01:12;;;;;;;30.63;11.48;;;4.20;99.90;;;;;;5065209;28;20398;-64
2021/12/05 04:03:39;;;;;;;23.10;11.63;;;4.20;99.90;;;;;;5068148;28;20036;-64
2021/12/05 04:06:09;;;;;;;24.75;10.48;;;4.20;99.90;;;;;;5066227;28;20607;-64
2021/12/05 04:08:36;;;;;;;21.55;11.15;;;4.20;99.90;;;;;;5062035;28;20535;-64
2021/12/05 04:11:08;;;;;;;26.92;10.20;;;4.20;99.90;;;;;;5096563;28;20525;-64
2021/12/05 04:13:34;;;;;;;25.23;11.20;;;4.20;99.90;;;;;;5064707;28;20082;-64
2021/12/05 04:16:03;;;;;;;26.27;10.75;;;4.20;99.90;;;;;;5063915;28;20037;-64
2021/12/05 04:18:29;;;;;;;19.50;9.30;;;4.20;99.90;;;;;;5066665;28;20126;-64
2021/12/05 04:20:55;;;;;;;25.85;10.10;;;4.10;99.90;;;;;;5063404;28;20033;-64
2021/12/05 04:23:21;;;;;;;24.50;9.93;;;4.10;99.90;;;;;;5065824;28;20039;-64
2021/12/05 04:25:51;;;;;;;24.23;9.63;;;4.10;99.90;;;;;;5063640;28;20044;-64
2021/12/05 04:28:21;;;;;;;19.08;8.85;;;4.10;99.90;;;;;;5065657;28;20056;-64
2021/12/05 04:30:47;;;;;;;26.85;8.93;;;4.10;99.90;;;;;;5068653;28;20086;-64
2021/12/05 04:33:12;;;;;;;28.15;9.73;;;4.10;99.90;;;;;;5062496;28;20083;-64
2021/12/05 04:35:38;;;;;;;28.02;9.85;;;4.00;99.90;;;;;;5064107;28;20482;-64
2021/12/05 04:38:04;;;;;;;30.73;8.95;;;4.00;99.90;;;;;;5064250;28;20044;-64
2021/12/05 04:40:32;;;;;;;22.30;8.77;;;4.00;99.90;;;;;;5064558;28;20418;-64
2021/12/05 04:42:58;;;;;;;22.88;7.78;;;4.00;99.90;;;;;;5064811;28;20048;-64
2021/12/05 04:45:26;;;;;;;28.42;8.45;;;4.00;99.90;;;;;;5066455;28;20032;-64
2021/12/05 04:47:53;;;;;;;18.92;7.18;;;3.90;99.90;;;;;;5093037;28;20360;-64
2021/12/05 04:50:20;;;;;;;18.27;8.02;;;3.90;99.90;;;;;;5064034;28;20048;-64
2021/12/05 04:52:46;;;;;;;16.52;6.35;;;3.90;99.90;;;;;;5064882;28;20048;-64
2021/12/05 04:55:13;;;;;;;22.90;7.97;;;3.90;99.90;;;;;;5063054;28;20032;-64
2021/12/05 04:57:40;;;;;;;20.08;6.43;;;3.80;99.90;;;;;;5067102;28;20079;-64
2021/12/05 05:00:12;;;;;;;29.05;8.15;;;3.80;99.90;;;;;;5066629;28;20052;-64
2021/12/05 05:02:39;;;;;;;17.58;7.32;;;3.80;99.90;;;;;;5062684;28;20045;-64
2021/12/05 05:05:05;;;;;;;20.50;6.85;;;3.70;99.90;;;;;;5065070;28;20127;-64
2021/12/05 05:07:31;;;;;;;25.17;7.90;;;3.70;99.90;;;;;;5064825;28;20090;-64
2021/12/05 05:10:18;;;;;;;18.85;6.50;;;3.70;99.90;;;;;;5063662;28;20517;-64
2021/12/05 05:12:43;;;;;;;24.15;7.28;;;3.70;99.90;;;;;;5064180;28;20059;-64
2021/12/05 05:15:11;;;;;;;15.68;6.68;;;3.60;99.90;;;;;;5061696;28;20045;-64
2021/12/05 05:17:39;;;;;;;15.63;6.70;;;3.60;99.90;;;;;;5058734;28;20398;-64
2021/12/05 05:20:15;;;;;;;22.58;7.32;;;3.60;99.90;;;;;;5059210;28;20049;-64
2021/12/05 05:22:59;;;;;;;16.67;6.43;;;3.60;99.90;;;;;;5061463;28;20044;-65
2021/12/05 05:28:12;;;;;;;24.08;7.72;;;3.60;99.90;;;;;;5060761;28;20988;-65
2021/12/05 05:30:50;;;;;;;21.20;6.88;;;3.50;99.90;;;;;;5060392;28;20873;-65
2021/12/05 05:42:14;;;;;;;19.08;6.18;;;3.40;99.90;;;;;;5059500;28;20503;-64
2021/12/05 05:47:06;;;;;;;17.08;7.03;;;3.40;99.90;;;;;;5059974;28;20044;-65
2021/12/05 05:49:50;;;;;;;27.35;6.95;;;3.40;99.90;;;;;;5060102;28;20041;-65
2021/12/05 05:52:17;;;;;;;18.90;6.22;;;3.30;99.90;;;;;;5059498;28;20040;-64
2021/12/05 05:54:46;;;;;;;19.75;5.65;;;3.30;99.90;;;;;;5060184;28;20036;-64
2021/12/05 05:57:21;;;;;;;23.63;6.22;;;3.30;99.90;;;;;;5072941;28;20037;-64
2021/12/05 05:59:56;;;;;;;22.40;6.90;;;3.30;99.90;;;;;;5059151;28;20053;-65
2021/12/05 06:05:07;;;;;;;22.02;6.30;;;3.30;99.90;;;;;;5061844;28;20131;-64
2021/12/05 06:07:40;;;;;;;21.60;7.10;;;3.30;99.90;;;;;;5061065;28;20059;-65
2021/12/05 06:10:07;;;;;;;21.70;6.88;;;4.20;99.90;;;;;;5059273;28;20043;-64
2021/12/05 06:12:32;;;;;;;20.20;6.22;;;3.30;99.90;;;;;;5058725;28;20505;-65
2021/12/05 06:14:58;;;;;;;19.17;7.28;;;3.30;99.90;;;;;;5058415;28;20059;-64
2021/12/05 06:17:23;;;;;;;27.05;7.07;;;3.30;99.90;;;;;;5059857;28;20048;-64
2021/12/05 06:19:49;;;;;;;14.52;6.30;;;3.30;99.90;;;;;;5059310;28;20036;-64
2021/12/05 06:22:14;;;;;;;22.23;6.50;;;3.30;99.90;;;;;;5091302;28;20044;-64
2021/12/05 06:24:40;;;;;;;20.75;8.65;;;3.30;99.90;;;;;;5060587;28;20040;-64
2021/12/05 06:27:06;;;;;;;19.85;6.18;;;3.30;99.90;;;;;;5063027;28;20044;-64
2021/12/05 06:29:37;;;;;;;21.35;6.72;;;3.40;99.90;;;;;;5092283;28;20032;-64
2021/12/05 06:37:43;;;;;;;27.73;7.15;;;3.30;99.90;;;;;;5058381;28;20044;-64
2021/12/05 06:42:51;;;;;;;19.13;7.65;;;3.30;99.90;;;;;;5061828;28;20533;-64
2021/12/05 06:48:00;;;;;;;22.33;7.13;;;3.40;99.90;;;;;;5057858;28;20053;-64
2021/12/05 06:50:26;;;;;;;16.05;7.00;;;3.40;99.90;;;;;;5062896;28;20717;-64
2021/12/05 06:52:52;;;;;;;23.90;8.65;;;3.50;99.90;;;;;;5061842;28;20050;-65
2021/12/05 06:55:18;;;;;;;23.58;7.72;;;3.50;99.90;;;;;;5066955;28;20526;-64
2021/12/05 06:57:45;;;;;;;24.05;7.28;;;3.50;99.90;;;;;;5057796;28;20097;-64
2021/12/05 07:00:21;;;;;;;18.77;8.10;;;3.50;99.90;;;;;;5058481;28;20067;-65
2021/12/05 07:02:47;;;;;;;20.27;7.88;;;3.50;99.90;;;;;;5060872;28;20044;-64
2021/12/05 07:07:40;;;;;;;16.67;7.38;;;3.60;99.90;;;;;;5059909;28;20040;-65
2021/12/05 07:10:09;;;;;;;18.90;9.18;;;3.60;99.90;;;;;;5064045;28;20049;-65
2021/12/05 07:15:19;;;;;;;15.68;8.77;;;3.60;99.90;;;;;;5061164;28;20041;-64
2021/12/05 07:23:23;;;;;;;18.15;8.68;;;3.70;99.90;;;;;;5062959;28;20132;-64
2021/12/05 07:26:04;;;;;;;21.08;8.43;;;3.70;99.90;;;;;;5077781;28;20037;-64
2021/12/05 07:42:19;;;;;;;20.33;8.55;;;3.80;99.90;;;;;;5095099;28;20147;-64
2021/12/05 07:44:45;;;;;;;22.00;9.70;;;3.80;99.90;;;;;;5062789;28;20090;-65
2021/12/05 07:47:15;;;;;;;18.08;8.32;;;3.80;99.90;;;;;;5062240;28;20060;-64
2021/12/05 07:49:41;;;;;;;21.70;8.90;;;3.90;99.90;;;;;;5062324;28;20041;-64
2021/12/05 07:52:07;;;;;;;18.52;8.68;;;3.90;99.90;;;;;;5063266;28;20040;-65
2021/12/05 07:54:43;;;;;;;22.13;9.60;;;4.00;99.90;;;;;;5074163;28;20064;-64
2021/12/05 07:59:54;;;;;;;22.30;10.70;;;4.00;99.90;;;;;;5060131;28;20442;-64
2021/12/05 08:16:26;;;;;;;22.67;11.15;;;4.20;99.90;;;;;;5062729;28;20048;-64
2021/12/05 08:18:51;;;;;;;19.90;12.07;;;4.10;99.90;;;;;;5063375;28;20037;-65
2021/12/05 08:21:18;;;;;;;20.50;10.52;;;4.50;99.90;;;;;;5064727;28;20055;-64
2021/12/05 08:23:46;;;;;;;24.65;11.20;;;4.00;99.90;;;;;;5064432;28;20506;-64
2021/12/05 08:26:18;;;;;;;21.35;10.65;;;4.10;99.90;;;;;;5061133;28;20478;-64
2021/12/05 08:28:57;;;;;;;18.35;11.13;;;4.10;99.90;;;;;;5064423;28;20040;-64
2021/12/05 08:31:56;;;;;;;23.45;11.32;;;4.10;99.90;;;;;;5063138;28;20051;-64
2021/12/05 08:34:45;;;;;;;22.75;11.40;;;4.20;99.90;;;;;;5063384;28;20051;-65
2021/12/05 09:21:20;;;;;;;19.90;10.38;;;4.50;99.90;;;;;;5091994;28;20111;-64
2021/12/05 09:26:22;;;;;;;17.75;11.02;;;4.50;99.90;;;;;;5063706;28;20530;-64
2021/12/05 09:29:18;;;;;;;14.57;9.35;;;4.50;99.90;;;;;;5081280;28;20054;-64
2021/12/05 09:40:33;;;;;;;20.45;9.63;;;4.40;99.90;;;;;;5063668;28;20048;-65
2021/12/05 10:01:45;;;;;;;19.02;9.88;;;4.40;99.90;;;;;;5059597;28;20041;-65
2021/12/05 10:15:44;;;;;;;18.10;9.97;;;4.50;99.90;;;;;;5059986;28;20045;-64
2021/12/05 10:37:37;;;;;;;16.67;6.05;;;4.90;99.90;;;;;;5061180;28;20072;-64
2021/12/05 10:40:16;;;;;;;18.40;7.28;;;4.90;99.90;;;;;;5062293;28;20081;-64
2021/12/05 10:42:51;;;;;;;12.27;6.82;;;5.00;99.90;;;;;;5061883;28;20040;-64
2021/12/05 10:45:19;;;;;;;11.40;6.70;;;5.10;99.90;;;;;;5062412;28;20032;-64
2021/12/05 10:47:53;;;;;;;11.90;6.32;;;5.00;99.90;;;;;;5059448;28;20046;-64
2021/12/05 10:50:35;;;;;;;15.10;4.85;;;5.10;99.90;;;;;;5060823;28;20383;-64
2021/12/05 10:53:30;;;;;;;11.98;6.00;;;5.10;99.90;;;;;;5061014;28;20123;-64
2021/12/05 10:56:26;;;;;;;9.15;5.10;;;5.10;99.90;;;;;;5058443;28;20048;-64
2021/12/05 10:58:56;;;;;;;14.85;5.45;;;5.20;99.90;;;;;;5062510;28;20561;-64
2021/12/05 11:01:41;;;;;;;13.45;5.03;;;5.20;99.90;;;;;;5067365;28;20045;-64
2021/12/05 11:04:17;;;;;;;14.40;5.93;;;5.20;99.90;;;;;;5065265;28;20044;-64
2021/12/05 11:06:52;;;;;;;9.57;4.80;;;5.20;99.90;;;;;;5065440;28;20367;-64
2021/12/05 11:09:18;;;;;;;11.88;5.70;;;5.20;99.90;;;;;;5067268;28;20118;-64
2021/12/05 11:11:47;;;;;;;9.90;4.40;;;5.20;99.90;;;;;;5065523;28;20446;-64
2021/12/05 11:14:20;;;;;;;11.95;4.95;;;5.10;99.90;;;;;;5065221;28;20055;-64
2021/12/05 11:17:15;;;;;;;9.93;4.65;;;5.20;99.90;;;;;;5066820;28;20103;-64
2021/12/05 11:19:49;;;;;;;11.90;4.63;;;5.10;99.90;;;;;;5065537;28;20108;-64
2021/12/05 11:22:27;;;;;;;11.23;4.68;;;5.20;99.90;;;;;;5098532;28;20121;-64
2021/12/05 11:25:20;;;;;;;10.75;5.53;;;5.10;99.90;;;;;;5066595;28;20041;-64
2021/12/05 11:27:48;;;;;;;16.02;5.55;;;5.10;99.90;;;;;;5062803;28;20048;-62
2021/12/05 11:30:43;;;;;;;9.20;4.22;;;5.20;99.90;;;;;;5067027;28;20032;-65
2021/12/05 11:33:19;;;;;;;7.90;4.05;;;5.20;99.90;;;;;;5064447;28;20664;-64
2021/12/05 11:35:56;;;;;;;6.88;4.93;;;5.20;99.90;;;;;;5066319;28;20051;-64
2021/12/05 11:38:29;;;;;;;9.00;4.60;;;5.20;99.90;;;;;;5067277;28;20064;-63
2021/12/05 11:41:14;;;;;;;10.82;4.35;;;5.10;99.90;;;;;;5066873;28;20055;-63
2021/12/05 11:43:51;;;;;;;19.13;5.45;;;5.10;99.90;;;;;;5067212;28;20124;-63
2021/12/05 11:46:27;;;;;;;13.77;4.88;;;5.20;99.90;;;;;;5065406;28;20043;-63
2021/12/05 11:49:02;;;;;;;8.38;3.80;;;5.10;99.90;;;;;;5065767;28;20496;-63
2021/12/05 11:51:32;;;;;;;9.80;4.85;;;5.10;99.90;;;;;;5068250;28;20041;-63
2021/12/05 11:54:30;;;;;;;9.50;4.50;;;5.10;99.90;;;;;;5095543;28;20048;-63
2021/12/05 11:57:03;;;;;;;15.20;5.47;;;5.10;99.90;;;;;;5098641;28;20131;-63
2021/12/05 11:59:38;;;;;;;13.60;4.32;;;5.10;99.90;;;;;;5096290;28;20090;-63
2021/12/05 12:02:08;;;;;;;10.40;4.75;;;5.10;99.90;;;;;;5066272;28;20044;-63
2021/12/05 12:04:50;;;;;;;8.70;4.28;;;5.10;99.90;;;;;;5063742;28;20506;-63
2021/12/05 12:07:28;;;;;;;8.05;4.40;;;5.10;99.90;;;;;;5064732;28;20045;-63
2021/12/05 12:09:58;;;;;;;9.05;4.80;;;5.10;99.90;;;;;;5065689;28;20040;-63
2021/12/05 12:12:25;;;;;;;6.50;4.47;;;5.10;99.90;;;;;;5065676;28;20036;-63
2021/12/05 12:14:51;;;;;;;9.25;5.93;;;5.10;99.90;;;;;;5065970;28;20052;-63
2021/12/05 12:17:17;;;;;;;11.40;5.35;;;5.20;99.90;;;;;;5066498;28;20085;-63
2021/12/05 12:19:55;;;;;;;9.65;5.05;;;5.10;99.90;;;;;;5069067;28;20059;-63
2021/12/05 12:22:23;;;;;;;13.82;5.20;;;5.10;99.90;;;;;;5066662;28;20055;-63
2021/12/05 12:24:52;;;;;;;10.77;4.95;;;5.20;99.90;;;;;;5065999;28;20115;-63
2021/12/05 12:27:20;;;;;;;8.82;4.82;;;5.10;99.90;;;;;;5066122;28;20043;-63
2021/12/05 12:29:46;;;;;;;10.88;5.07;;;5.20;99.90;;;;;;5064253;28;20040;-63
2021/12/05 12:32:16;;;;;;;10.68;4.97;;;5.20;99.90;;;;;;5065453;28;20118;-63
2021/12/05 12:34:43;;;;;;;8.15;4.68;;;5.20;99.90;;;;;;5094828;27;20044;-63
2021/12/05 12:37:11;;;;;;;12.00;5.15;;;5.30;99.90;;;;;;5065125;28;20518;-63
2021/12/05 12:39:45;;;;;;;11.50;5.25;;;5.30;99.90;;;;;;5096992;27;20559;-63
2021/12/05 12:42:18;;;;;;;10.68;5.18;;;5.30;99.90;;;;;;5061469;28;20081;-63
2021/12/05 12:45:10;;;;;;;12.85;4.65;;;5.40;99.90;;;;;;5065641;28;20067;-63
2021/12/05 12:47:42;;;;;;;8.93;4.45;;;5.40;99.90;;;;;;5063841;28;20061;-63
2021/12/05 12:50:24;;;;;;;10.95;4.78;;;5.40;99.90;;;;;;5063180;28;20049;-63
2021/12/05 12:53:03;;;;;;;9.98;4.80;;;5.40;99.90;;;;;;5061940;28;20044;-63
2021/12/05 12:55:32;;;;;;;7.80;4.68;;;5.30;99.90;;;;;;5064043;28;20040;-63
2021/12/05 12:57:58;;;;;;;11.25;4.97;;;5.40;99.90;;;;;;5062796;28;20114;-63
2021/12/05 13:00:27;;;;;;;10.48;4.25;;;5.40;99.90;;;;;;5063401;28;20067;-63
2021/12/05 13:07:14;;;;;;;12.55;4.18;;;5.40;99.90;;;;;;5064516;28;20056;-63
2021/12/05 13:11:47;;;;;;;11.90;5.22;;;5.40;99.90;;;;;;5048191;28;19916;-62
2021/12/05 13:14:13;;;;;;;12.70;5.55;;;5.50;99.90;;;;;;5049596;28;20056;-61
2021/12/05 13:16:44;;;;;;;9.30;4.40;;;5.50;99.90;;;;;;5056742;28;20052;-61
2021/12/05 13:19:13;;;;;;;6.20;3.10;;;5.50;99.90;;;;;;5097183;28;20056;-61
2021/12/05 13:21:43;;;;;;;9.95;3.30;;;5.50;99.90;;;;;;5066972;28;20510;-61
2021/12/05 13:24:26;;;;;;;6.80;3.60;;;5.40;99.90;;;;;;5065444;28;20107;-61
2021/12/05 13:27:07;;;;;;;11.73;3.95;;;5.40;99.90;;;;;;5065310;28;20037;-61
2021/12/05 13:29:37;;;;;;;9.13;4.85;;;5.40;99.90;;;;;;5059874;28;20509;-61
2021/12/05 13:32:06;;;;;;;7.32;2.90;;;5.40;99.90;;;;;;5064445;28;20032;-61
2021/12/05 13:34:45;;;;;;;4.78;3.10;;;5.40;99.90;;;;;;5065760;28;20044;-61
2021/12/05 13:37:13;;;;;;;7.40;3.20;;;5.30;99.90;;;;;;5066428;28;20131;-61
2021/12/05 13:39:43;;;;;;;7.20;2.83;;;5.40;99.90;;;;;;5063780;28;20044;-61
2021/12/05 13:42:22;;;;;;;6.88;3.40;;;5.40;99.90;;;;;;5062249;28;20481;-61
2021/12/05 13:44:59;;;;;;;4.63;3.15;;;5.40;99.90;;;;;;5066513;28;20040;-62
2021/12/05 13:48:04;;;;;;;7.07;3.80;;;5.30;99.90;;;;;;5062332;28;20041;-62
2021/12/05 13:50:47;;;;;;;5.55;3.50;;;5.30;99.90;;;;;;5059526;28;20071;-61
2021/12/05 13:53:13;;;;;;;3.17;2.88;;;5.30;99.90;;;;;;5064326;28;20045;-61
2021/12/05 13:55:53;;;;;;;5.30;3.00;;;5.40;99.90;;;;;;5065556;28;20036;-62
2021/12/05 13:58:45;;;;;;;6.80;3.33;;;5.50;99.90;;;;;;5067451;28;20516;-62
2021/12/05 14:01:25;;;;;;;5.30;3.28;;;5.40;99.90;;;;;;5065273;28;20119;-62
2021/12/05 14:04:23;;;;;;;6.15;4.22;;;5.40;99.90;;;;;;5065877;28;20036;-61
2021/12/05 14:07:01;;;;;;;7.85;3.45;;;5.50;99.90;;;;;;5065386;28;20041;-62
2021/12/05 14:09:29;;;;;;;5.68;3.10;;;5.50;99.90;;;;;;5067781;28;20076;-62
2021/12/05 14:12:10;;;;;;;7.93;3.67;;;5.40;99.90;;;;;;5064694;28;20047;-62
2021/12/05 14:14:37;;;;;;;7.15;4.13;;;5.50;99.90;;;;;;5063205;28;20049;-62
2021/12/05 14:17:08;;;;;;;5.43;3.70;;;5.50;99.90;;;;;;5065172;28;20044;-62
2021/12/05 14:19:35;;;;;;;7.28;3.22;;;5.50;99.90;;;;;;5062575;28;20506;-62
2021/12/05 14:22:04;;;;;;;7.75;4.22;;;5.40;99.90;;;;;;5063043;28;20594;-62
2021/12/05 14:24:33;;;;;;;5.53;3.47;;;5.40;99.90;;;;;;5066077;28;20037;-62
2021/12/05 14:27:02;;;;;;;6.82;3.65;;;5.50;99.90;;;;;;5066342;28;20067;-62
2021/12/05 14:29:29;;;;;;;5.55;3.42;;;5.40;99.90;;;;;;5063297;28;20045;-62
2021/12/05 14:32:06;;;;;;;5.80;3.88;;;5.50;99.90;;;;;;5063146;28;20052;-62
2021/12/05 14:34:32;;;;;;;5.88;3.55;;;5.40;99.90;;;;;;5058508;28;20052;-62
2021/12/05 14:37:11;;;;;;;7.28;3.47;;;5.50;99.90;;;;;;5064789;28;20068;-62
2021/12/05 14:39:40;;;;;;;7.22;3.33;;;5.50;99.90;;;;;;5067390;28;20057;-62
2021/12/05 14:42:15;;;;;;;6.32;3.28;;;5.40;99.90;;;;;;5065033;28;20113;-62
2021/12/05 14:44:42;;;;;;;;;;;5.50;99.90;;;;;;5065439;28;20044;-62
2021/12/05 14:47:11;;;;;;;5.07;3.67;;;5.50;99.90;;;;;;5096397;28;19997;-62
2021/12/05 14:49:43;;;;;;;8.32;3.90;;;5.50;99.90;;;;;;5066960;28;20049;-62
2021/12/05 14:52:16;;;;;;;5.70;4.40;;;5.40;99.90;;;;;;5097560;28;20177;-62
2021/12/05 14:54:43;;;;;;;5.45;3.72;;;5.40;99.90;;;;;;5062868;28;20491;-62
2021/12/05 14:57:22;;;;;;;7.53;3.78;;;5.30;99.90;;;;;;5065015;28;20052;-62
2021/12/05 14:59:50;;;;;;;6.53;3.67;;;5.30;99.90;;;;;;5066956;28;20059;-62
2021/12/05 15:02:19;;;;;;;6.25;4.32;;;5.30;99.90;;;;;;5067604;28;20052;-62
2021/12/05 15:04:47;;;;;;;8.00;3.63;;;5.30;99.90;;;;;;5064165;28;20170;-62
2021/12/05 15:07:13;;;;;;;9.35;3.83;;;5.30;99.90;;;;;;5062252;28;20774;-62
2021/12/05 15:09:44;;;;;;;7.07;3.80;;;5.20;99.90;;;;;;5095451;28;20051;-62
2021/12/05 15:12:20;;;;;;;5.72;3.85;;;5.30;99.90;;;;;;5064467;28;20170;-62
2021/12/05 15:14:53;;;;;;;7.82;3.90;;;5.30;99.90;;;;;;5063305;28;20125;-62
2021/12/05 15:17:21;;;;;;;10.57;5.13;;;5.30;99.90;;;;;;5095508;28;20127;-62
2021/12/05 15:19:51;;;;;;;10.05;4.78;;;5.20;99.90;;;;;;5066213;28;20113;-62
2021/12/05 15:22:18;;;;;;;8.10;4.45;;;5.20;99.90;;;;;;5066704;28;20040;-62
2021/12/05 15:24:56;;;;;;;6.35;5.28;;;5.20;99.90;;;;;;5064098;28;20091;-62
2021/12/05 15:27:25;;;;;;;9.57;4.75;;;5.20;99.90;;;;;;5062744;28;20044;-62
2021/12/05 15:29:53;;;;;;;8.15;5.15;;;5.20;99.90;;;;;;5063865;28;20071;-62
2021/12/05 15:32:23;;;;;;;9.27;4.05;;;5.10;99.90;;;;;;5066274;28;20071;-62
2021/12/05 15:34:55;;;;;;;8.45;4.25;;;5.20;99.90;;;;;;5064523;28;20053;-62
2021/12/05 15:37:21;;;;;;;6.85;4.20;;;5.20;99.90;;;;;;5064464;28;20090;-62
2021/12/05 15:39:48;;;;;;;7.20;4.25;;;5.10;99.90;;;;;;5062504;28;20036;-62
2021/12/05 15:42:31;;;;;;;6.13;3.88;;;5.20;99.90;;;;;;5062832;28;20041;-62
2021/12/05 15:44:59;;;;;;;5.00;4.15;;;5.20;99.90;;;;;;5063126;28;20093;-62
2021/12/05 15:47:28;;;;;;;7.18;4.47;;;5.20;99.90;;;;;;5060756;28;20044;-62
2021/12/05 15:50:29;;;;;;;6.22;4.53;;;5.20;99.90;;;;;;5063119;28;20483;-62
2021/12/05 15:52:58;;;;;;;9.35;4.55;;;5.20;99.90;;;;;;5057016;28;20502;-62
2021/12/05 15:55:40;;;;;;;8.73;4.15;;;5.20;99.90;;;;;;5054146;28;20099;-62
2021/12/05 15:58:12;;;;;;;9.90;5.03;;;5.20;99.90;;;;;;5051811;28;20052;-62
2021/12/05 16:00:46;;;;;;;9.52;4.75;;;5.30;99.90;;;;;;5055004;28;20101;-62
2021/12/05 16:03:19;;;;;;;9.25;5.15;;;5.20;99.90;;;;;;5063413;28;20071;-62
2021/12/05 16:05:53;;;;;;;6.65;4.18;;;5.30;99.90;;;;;;5064548;28;20048;-62
2021/12/05 16:08:19;;;;;;;11.20;4.93;;;5.40;99.90;;;;;;5065736;28;20063;-62
2021/12/05 16:10:57;;;;;;;6.68;4.05;;;5.30;99.90;;;;;;5064918;28;20378;-62
2021/12/05 16:13:33;;;;;;;6.95;4.10;;;5.40;99.90;;;;;;5063075;28;20469;-62
2021/12/05 16:16:10;;;;;;;6.63;4.97;;;5.50;99.90;;;;;;5078208;28;20048;-61
2021/12/05 16:18:37;;;;;;;8.48;4.85;;;5.40;99.90;;;;;;5093175;28;20099;-62
2021/12/05 16:21:14;;;;;;;6.60;4.80;;;5.50;99.90;;;;;;5062336;28;21561;-62
2021/12/05 16:23:39;;;;;;;10.20;5.55;;;5.50;99.90;;;;;;5065230;28;20056;-62
2021/12/05 16:26:13;;;;;;;10.40;6.05;;;5.50;99.90;;;;;;5066642;28;20033;-62
2021/12/05 16:28:40;;;;;;;10.32;5.53;;;5.60;99.90;;;;;;5094458;28;20045;-62
2021/12/05 16:31:15;;;;;;;9.93;5.38;;;5.60;99.90;;;;;;5063342;28;20048;-62
2021/12/05 16:33:46;;;;;;;16.00;6.22;;;5.60;99.90;;;;;;5066433;28;20081;-62
2021/12/05 16:36:12;;;;;;;9.13;5.57;;;5.60;99.90;;;;;;5066103;28;20086;-62
2021/12/05 16:38:44;;;;;;;12.85;6.97;;;5.60;99.90;;;;;;5065395;28;20043;-62
2021/12/05 16:41:12;;;;;;;10.20;7.22;;;5.70;99.90;;;;;;5063031;28;20498;-62
2021/12/05 16:43:50;;;;;;;15.30;8.70;;;5.60;99.90;;;;;;5064473;28;20072;-62
2021/12/05 16:46:25;;;;;;;16.80;8.85;;;5.60;99.90;;;;;;5063922;28;20060;-62
2021/12/05 16:48:53;;;;;;;14.53;9.37;;;5.50;99.90;;;;;;5064503;28;20072;-62
2021/12/05 16:51:25;;;;;;;13.43;10.00;;;5.50;99.90;;;;;;5071016;28;20394;-61
2021/12/05 16:53:58;;;;;;;16.20;10.40;;;5.50;99.90;;;;;;5066784;28;20451;-62
2021/12/05 16:57:06;;;;;;;20.02;11.07;;;5.40;99.90;;;;;;5064239;28;20055;-62
2021/12/05 16:59:44;;;;;;;18.60;10.88;;;5.30;99.90;;;;;;5024047;28;20048;-62
2021/12/05 17:02:27;;;;;;;19.67;11.27;;;5.30;99.90;;;;;;5065559;28;20549;-62
2021/12/05 17:05:05;;;;;;;18.55;11.35;;;5.30;99.90;;;;;;5064159;28;20036;-62
2021/12/05 17:07:42;;;;;;;17.30;11.77;;;5.20;99.90;;;;;;5064188;28;20056;-62
2021/12/05 17:10:30;;;;;;;15.27;11.93;;;5.30;99.90;;;;;;5066181;28;20410;-62
2021/12/05 17:13:13;;;;;;;19.67;11.77;;;5.20;99.90;;;;;;5063457;28;20056;-62
2021/12/05 17:15:54;;;;;;;18.63;12.43;;;5.20;99.90;;;;;;5064952;28;20066;-62
2021/12/05 17:18:41;;;;;;;21.15;11.57;;;5.20;99.90;;;;;;5139667;27;20412;-62
2021/12/05 17:21:19;;;;;;;20.83;12.65;;;5.20;99.90;;;;;;5126267;27;20039;-62
2021/12/05 17:24:01;;;;;;;20.77;13.90;;;5.30;99.90;;;;;;5129430;27;20054;-62
2021/12/05 17:26:34;;;;;;;17.48;12.57;;;5.30;99.90;;;;;;5125399;27;20043;-61
2021/12/05 17:29:19;;;;;;;18.02;11.80;;;5.20;99.90;;;;;;5124539;27;20039;-62
2021/12/05 17:32:07;;;;;;;17.88;12.50;;;5.20;99.90;;;;;;5123204;27;20107;-62
2021/12/05 17:34:45;;;;;;;25.27;13.52;;;5.20;99.90;;;;;;5155531;27;20043;-62
2021/12/05 17:37:22;;;;;;;19.25;12.77;;;5.20;99.90;;;;;;5124694;27;20092;-61
2021/12/05 17:39:50;;;;;;;23.60;13.25;;;5.10;99.90;;;;;;5123331;27;20043;-61
2021/12/05 17:42:19;;;;;;;25.00;13.75;;;5.20;99.90;;;;;;5121257;27;20039;-62
2021/12/05 17:44:46;;;;;;;18.77;13.68;;;5.20;99.90;;;;;;5154045;27;20067;-62
2021/12/05 17:47:15;;;;;;;25.58;14.93;;;5.20;99.90;;;;;;5119757;27;20071;-62
2021/12/05 17:49:43;;;;;;;20.83;14.82;;;5.20;99.90;;;;;;5121706;28;20051;-62
2021/12/05 17:52:11;;;;;;;18.33;14.65;;;5.20;99.90;;;;;;5121491;28;20035;-62
2021/12/05 17:55:00;;;;;;;21.90;15.38;;;5.20;99.90;;;;;;5119798;28;20042;-62
2021/12/05 17:57:36;;;;;;;22.08;15.25;;;5.20;99.90;;;;;;5116286;27;20044;-62
2021/12/05 18:00:23;;;;;;;23.17;16.02;;;5.10;99.90;;;;;;5147092;27;20090;-62
2021/12/05 18:02:55;;;;;;;25.77;16.17;;;5.10;99.90;;;;;;5119568;28;20106;-62
2021/12/05 18:05:27;;;;;;;24.77;15.80;;;5.10;99.90;;;;;;5120126;28;20043;-62